RJAW/IWO METAR and TAF weather

Enter ICAO airport designator
Station Type Date Time Source
RJAW METAR 2021/09/24 05:00 UTC NOAA

RJAW 240500Z 08013KT 9999 SCT015 31/23 Q1013 RMK 3CU015 A2992


Station Type Date Time Source
RJAW Decoded METAR 2021/09/24 05:00 UTC NOAA

Iwojima, Japan (RJAW) 24-47N 141-19E 116M
Sep 24, 2021 - 01:00 AM EDT / 2021.09.24 0500 UTC
Wind: from the E (080 degrees) at 15 MPH (13 KT):0
Visibility: greater than 7 mile(s):0
Sky conditions: partly cloudy
Temperature: 87 F (31 C)
Heat index: 93.9 F (34.4 C):1
Dew Point: 73 F (23 C)
Relative Humidity: 62%
Pressure (altimeter): 29.91 in. Hg (1013 hPa)
ob: RJAW 240500Z 08013KT 9999 SCT015 31/23 Q1013 RMK 3CU015 A2992
cycle: 5

Station Type Date Time Source
RJAW TAF UTC NOAA

Error!

Example: see airport list